createdAt,value
2019-03-27T00:00:26.355Z,27.67
2019-03-27T00:02:55.874Z,19.47
2019-03-27T00:05:25.289Z,22.00
2019-03-27T00:07:54.797Z,14.77
2019-03-27T00:10:24.320Z,21.00
2019-03-27T00:12:53.777Z,19.10
2019-03-27T00:15:23.280Z,17.13
2019-03-27T00:17:52.685Z,20.00
2019-03-27T00:20:22.175Z,16.10
2019-03-27T00:22:52.500Z,23.20
2019-03-27T00:25:22.042Z,20.73
2019-03-27T00:27:51.531Z,20.13
2019-03-27T00:30:21.021Z,26.20
2019-03-27T00:32:50.517Z,16.47
2019-03-27T00:35:20.003Z,21.30
2019-03-27T00:37:49.465Z,22.63
2019-03-27T00:40:18.898Z,21.47
2019-03-27T00:42:48.413Z,23.03
2019-03-27T00:45:26.548Z,18.37
2019-03-27T00:47:49.104Z,17.57
2019-03-27T00:50:18.549Z,22.70
2019-03-27T00:52:48.005Z,26.27
2019-03-27T00:55:17.848Z,22.43
2019-03-27T00:57:47.144Z,23.93
2019-03-27T01:00:25.161Z,26.47
2019-03-27T01:02:54.691Z,24.17
2019-03-27T01:05:24.127Z,21.50
2019-03-27T01:07:53.601Z,16.03
2019-03-27T01:10:23.042Z,27.27
2019-03-27T01:12:52.465Z,29.10
2019-03-27T01:15:21.967Z,24.63
2019-03-27T01:17:51.430Z,20.17
2019-03-27T01:20:20.875Z,30.23
2019-03-27T01:22:50.269Z,20.37
2019-03-27T01:25:19.743Z,24.93
2019-03-27T01:27:49.151Z,20.30
2019-03-27T01:30:18.768Z,25.27
2019-03-27T01:32:48.271Z,28.83
2019-03-27T01:35:17.813Z,25.00
2019-03-27T01:37:47.273Z,26.13
2019-03-27T01:40:16.733Z,25.77
2019-03-27T01:42:46.229Z,25.53
2019-03-27T01:45:15.730Z,24.03
2019-03-27T01:47:45.274Z,17.43
2019-03-27T01:50:14.848Z,24.23
2019-03-27T01:52:44.266Z,24.60
2019-03-27T01:55:13.790Z,33.40
2019-03-27T01:57:43.184Z,21.17
2019-03-27T02:00:12.966Z,21.43
2019-03-27T02:02:42.428Z,23.13
2019-03-27T02:05:12.074Z,27.00
2019-03-27T02:07:41.564Z,27.07
2019-03-27T02:10:11.674Z,28.03
2019-03-27T02:12:41.197Z,33.23
2019-03-27T02:15:11.506Z,31.77
2019-03-27T02:17:40.921Z,28.27
2019-03-27T02:20:10.677Z,27.73
2019-03-27T02:22:40.102Z,26.63
2019-03-27T02:25:09.727Z,34.60
2019-03-27T02:27:39.188Z,26.17
2019-03-27T02:30:09.401Z,29.90
2019-03-27T02:32:38.790Z,28.57
2019-03-27T02:35:08.453Z,36.30
2019-03-27T02:37:37.876Z,32.07
2019-03-27T02:40:08.099Z,36.23
2019-03-27T02:42:37.630Z,32.85
2019-03-27T02:45:07.531Z,28.13
2019-03-27T02:47:36.983Z,29.40
2019-03-27T02:50:06.870Z,22.57
2019-03-27T02:52:36.316Z,34.93
2019-03-27T02:55:05.926Z,33.07
2019-03-27T02:57:35.619Z,26.40
2019-03-27T03:00:06.230Z,30.77
2019-03-27T03:02:35.618Z,40.80
2019-03-27T03:05:05.655Z,37.27
2019-03-27T03:07:34.986Z,34.57
2019-03-27T03:10:06.809Z,32.93
2019-03-27T03:12:36.262Z,33.43
2019-03-27T03:15:06.618Z,32.97
2019-03-27T03:17:36.145Z,25.57
2019-03-27T03:20:06.665Z,38.70
2019-03-27T03:22:36.038Z,32.20
2019-03-27T03:25:06.068Z,34.97
2019-03-27T03:27:35.633Z,41.07
2019-03-27T03:30:06.528Z,28.53
2019-03-27T03:32:36.059Z,34.60
2019-03-27T03:35:06.598Z,38.10
2019-03-27T03:37:35.985Z,32.77
2019-03-27T03:40:06.134Z,34.03
2019-03-27T03:42:35.488Z,30.60
2019-03-27T03:45:05.378Z,34.40
2019-03-27T03:47:34.950Z,28.17
2019-03-27T03:50:04.733Z,30.90
2019-03-27T03:52:34.539Z,30.07
2019-03-27T03:55:04.640Z,31.70
2019-03-27T03:57:34.899Z,33.53
2019-03-27T04:00:05.355Z,34.83
2019-03-27T04:02:36.828Z,25.87
2019-03-27T04:05:07.083Z,37.33
2019-03-27T04:07:36.546Z,40.33
2019-03-27T04:10:06.597Z,33.37
2019-03-27T04:12:36.010Z,35.13
2019-03-27T04:15:05.572Z,36.30
2019-03-27T04:17:35.090Z,31.80
2019-03-27T04:20:05.516Z,34.67
2019-03-27T04:22:35.058Z,32.07
2019-03-27T04:25:05.007Z,35.83
2019-03-27T04:27:34.393Z,39.40
2019-03-27T04:30:04.174Z,41.87
2019-03-27T04:32:33.521Z,37.40
2019-03-27T04:35:02.927Z,36.13
2019-03-27T04:37:32.427Z,27.90
2019-03-27T04:40:01.875Z,26.33
2019-03-27T04:42:31.246Z,29.47
2019-03-27T04:45:00.730Z,33.00
2019-03-27T04:47:32.361Z,31.27
2019-03-27T04:50:01.244Z,35.43
2019-03-27T04:52:30.731Z,39.47
2019-03-27T04:55:00.346Z,39.83
2019-03-27T04:57:29.696Z,40.07
2019-03-27T04:59:59.122Z,38.57
2019-03-27T05:02:28.571Z,37.17
2019-03-27T05:04:58.336Z,29.63
2019-03-27T05:07:27.863Z,32.57
2019-03-27T05:09:57.474Z,41.63
2019-03-27T05:12:26.913Z,38.57
2019-03-27T05:14:57.859Z,47.90
2019-03-27T05:17:27.361Z,35.23
2019-03-27T05:19:56.907Z,36.13
2019-03-27T05:22:26.355Z,45.27
2019-03-27T05:24:55.887Z,43.70
2019-03-27T05:27:25.218Z,35.17
2019-03-27T05:29:54.712Z,33.88
2019-03-27T05:32:24.420Z,36.27
2019-03-27T05:34:53.759Z,48.93
2019-03-27T05:37:23.365Z,39.40
2019-03-27T05:39:52.822Z,43.80
2019-03-27T05:42:22.362Z,40.97
2019-03-27T05:44:51.891Z,49.87
2019-03-27T05:47:21.326Z,31.60
2019-03-27T05:49:50.836Z,37.60
2019-03-27T05:52:20.367Z,40.40
2019-03-27T05:54:49.824Z,36.73
2019-03-27T05:57:19.335Z,39.80
2019-03-27T05:59:48.873Z,36.10
2019-03-27T06:02:18.364Z,46.33
2019-03-27T06:04:47.768Z,32.53
2019-03-27T06:07:18.360Z,34.70
2019-03-27T06:09:48.302Z,35.13
2019-03-27T06:12:17.733Z,41.50
2019-03-27T06:14:49.400Z,46.40
2019-03-27T06:17:18.973Z,30.67
2019-03-27T06:19:48.491Z,31.03
2019-03-27T06:22:18.007Z,30.43
2019-03-27T06:24:47.715Z,31.23
2019-03-27T06:27:17.177Z,38.03
2019-03-27T06:29:46.740Z,30.08
2019-03-27T06:32:16.197Z,28.33
2019-03-27T06:34:45.659Z,31.50
2019-03-27T06:37:15.242Z,32.00
2019-03-27T06:39:45.129Z,27.77
2019-03-27T06:42:14.991Z,26.97
2019-03-27T06:44:44.428Z,27.03
2019-03-27T06:47:13.940Z,33.23
2019-03-27T06:49:43.394Z,32.33
2019-03-27T06:52:12.814Z,28.63
2019-03-27T06:54:42.274Z,29.80
2019-03-27T06:57:12.187Z,26.23
2019-03-27T06:59:41.732Z,33.43
2019-03-27T07:02:11.065Z,37.20
2019-03-27T07:04:40.611Z,31.90
2019-03-27T07:07:10.435Z,39.43
2019-03-27T07:09:42.370Z,44.43
2019-03-27T07:12:21.067Z,40.17
2019-03-27T07:14:42.382Z,34.90
2019-03-27T07:17:11.913Z,34.67
2019-03-27T07:19:41.321Z,36.17
2019-03-27T07:22:10.976Z,40.93
2019-03-27T07:24:40.400Z,35.17
2019-03-27T07:27:12.072Z,40.57
2019-03-27T07:29:41.609Z,39.13
2019-03-27T07:32:11.056Z,33.50
2019-03-27T07:34:40.559Z,36.00
2019-03-27T07:37:10.515Z,45.00
2019-03-27T07:39:39.888Z,38.73
2019-03-27T07:42:09.257Z,40.93
2019-03-27T07:44:38.747Z,40.85
2019-03-27T07:47:08.249Z,38.77
2019-03-27T07:49:37.712Z,39.93
2019-03-27T07:52:07.236Z,40.80
2019-03-27T07:54:36.971Z,35.83
2019-03-27T07:57:06.419Z,42.53
2019-03-27T07:59:35.954Z,50.83
2019-03-27T08:02:05.412Z,29.63
2019-03-27T08:04:34.945Z,34.83
2019-03-27T08:07:04.680Z,49.00
2019-03-27T08:09:34.137Z,35.03
2019-03-27T08:12:04.098Z,31.23
2019-03-27T08:14:34.376Z,33.33
2019-03-27T08:17:03.925Z,30.77
2019-03-27T08:19:33.400Z,32.67
2019-03-27T08:22:02.902Z,35.10
2019-03-27T08:24:32.435Z,28.67
2019-03-27T08:27:01.947Z,29.90
2019-03-27T08:29:31.391Z,23.73
2019-03-27T08:32:00.876Z,25.97
2019-03-27T08:34:30.244Z,24.43
2019-03-27T08:36:59.895Z,21.37
2019-03-27T08:39:29.331Z,23.57
2019-03-27T08:41:58.774Z,25.27
2019-03-27T08:44:28.282Z,16.80
2019-03-27T08:46:57.972Z,16.20
2019-03-27T08:49:27.501Z,10.93
2019-03-27T08:51:56.947Z,14.30
2019-03-27T08:54:26.307Z,10.60
2019-03-27T08:56:55.797Z,15.50
2019-03-27T08:59:25.372Z,14.43
2019-03-27T09:01:54.914Z,19.63
2019-03-27T09:04:24.498Z,16.20
2019-03-27T09:06:54.026Z,9.67
2019-03-27T09:09:23.541Z,12.40
2019-03-27T09:11:52.947Z,20.40
2019-03-27T09:14:22.566Z,8.67
2019-03-27T09:16:52.024Z,8.37
2019-03-27T09:19:34.564Z,13.63
2019-03-27T09:21:52.572Z,8.53
2019-03-27T09:24:21.969Z,13.73
2019-03-27T09:26:51.375Z,12.40
2019-03-27T09:29:20.718Z,11.10
2019-03-27T09:31:50.231Z,7.73
2019-03-27T09:34:20.125Z,15.10
2019-03-27T09:36:49.553Z,11.17
2019-03-27T09:39:19.035Z,16.20
2019-03-27T09:41:48.522Z,15.00
2019-03-27T09:44:18.127Z,9.67
2019-03-27T09:46:47.673Z,9.43
2019-03-27T09:49:16.995Z,9.60
2019-03-27T09:51:46.385Z,8.40
2019-03-27T09:54:15.884Z,12.37
2019-03-27T09:56:45.493Z,12.60
2019-03-27T09:59:14.964Z,6.93
2019-03-27T10:01:44.703Z,11.63
2019-03-27T10:04:13.999Z,9.80
2019-03-27T10:06:43.461Z,10.83
2019-03-27T10:09:13.011Z,10.60
2019-03-27T10:11:42.464Z,11.20
2019-03-27T10:14:11.878Z,10.70
2019-03-27T10:16:41.341Z,18.97
2019-03-27T10:19:10.755Z,8.87
2019-03-27T10:21:40.274Z,7.00
2019-03-27T10:24:09.847Z,12.53
2019-03-27T10:26:42.479Z,9.70
2019-03-27T10:29:10.462Z,9.43
2019-03-27T10:31:39.895Z,8.87
2019-03-27T10:34:09.375Z,13.03
2019-03-27T10:36:39.001Z,12.27
2019-03-27T10:39:08.995Z,9.53
2019-03-27T10:41:38.371Z,7.43
2019-03-27T10:44:07.825Z,8.43
2019-03-27T10:46:37.364Z,7.43
2019-03-27T10:49:06.719Z,4.90
2019-03-27T10:51:36.331Z,10.20
2019-03-27T10:54:05.918Z,8.73
2019-03-27T10:56:35.543Z,10.90
2019-03-27T10:59:05.062Z,9.97
2019-03-27T11:01:34.572Z,11.97
2019-03-27T11:04:04.162Z,14.33
2019-03-27T11:06:33.686Z,8.70
2019-03-27T11:09:04.487Z,7.90
2019-03-27T11:11:33.923Z,9.10
2019-03-27T11:14:03.440Z,8.63
2019-03-27T11:16:32.827Z,8.73
2019-03-27T11:19:02.336Z,8.87
2019-03-27T11:21:31.758Z,10.10
2019-03-27T11:24:02.216Z,8.93
2019-03-27T11:26:31.737Z,10.23
2019-03-27T11:29:01.491Z,9.33
2019-03-27T11:31:31.109Z,7.58
2019-03-27T11:34:00.614Z,7.40
2019-03-27T11:36:30.145Z,8.57
2019-03-27T11:38:59.713Z,13.50
2019-03-27T11:41:29.253Z,5.87
2019-03-27T11:43:58.593Z,9.47
2019-03-27T11:46:28.175Z,12.10
2019-03-27T11:48:57.612Z,8.87
2019-03-27T11:51:27.152Z,9.47
2019-03-27T11:53:57.358Z,7.00
2019-03-27T11:56:26.912Z,6.53
2019-03-27T11:58:56.327Z,15.33
2019-03-27T12:01:39.385Z,11.53
2019-03-27T12:03:58.552Z,15.97
2019-03-27T12:06:28.100Z,12.63
2019-03-27T12:08:57.526Z,13.77
2019-03-27T12:11:26.986Z,9.97
2019-03-27T12:13:56.483Z,13.13
2019-03-27T12:16:25.826Z,8.23
2019-03-27T12:18:55.368Z,12.97
2019-03-27T12:21:24.910Z,8.17
2019-03-27T12:23:54.270Z,11.77
2019-03-27T12:26:23.823Z,16.30
2019-03-27T12:28:53.379Z,9.10
2019-03-27T12:31:22.759Z,7.43
2019-03-27T12:33:52.270Z,10.73
2019-03-27T12:36:21.871Z,9.50
2019-03-27T12:38:51.434Z,12.80
2019-03-27T12:41:20.967Z,11.47
2019-03-27T12:43:50.417Z,12.13
2019-03-27T12:46:19.852Z,15.57
2019-03-27T12:48:49.345Z,7.83
2019-03-27T12:51:18.838Z,15.47
2019-03-27T12:53:48.331Z,10.10
2019-03-27T12:56:18.043Z,9.07
2019-03-27T12:58:47.579Z,11.53
2019-03-27T13:01:17.215Z,13.60
2019-03-27T13:03:46.724Z,9.17
2019-03-27T13:06:16.238Z,9.13
2019-03-27T13:08:45.595Z,9.27
2019-03-27T13:11:15.181Z,13.57
2019-03-27T13:13:44.571Z,11.00
2019-03-27T13:16:14.152Z,11.53
2019-03-27T13:18:43.668Z,13.27
2019-03-27T13:21:25.761Z,20.30
2019-03-27T13:23:44.218Z,11.67
2019-03-27T13:26:13.655Z,14.87
2019-03-27T13:28:48.699Z,12.13
2019-03-27T13:31:14.236Z,13.67
2019-03-27T13:33:43.634Z,15.13
2019-03-27T13:36:13.220Z,13.47
2019-03-27T13:38:42.815Z,10.40
2019-03-27T13:41:12.274Z,9.10
2019-03-27T13:43:41.948Z,10.60
2019-03-27T13:46:11.325Z,9.93
2019-03-27T13:48:40.854Z,13.90
2019-03-27T13:51:10.260Z,10.70
2019-03-27T13:53:39.785Z,10.87
2019-03-27T13:56:10.714Z,8.60
2019-03-27T13:58:40.253Z,9.97
2019-03-27T14:01:12.774Z,14.50
2019-03-27T14:03:41.216Z,14.17
2019-03-27T14:06:10.824Z,13.67
2019-03-27T14:08:40.254Z,10.40
2019-03-27T14:11:09.717Z,8.17
2019-03-27T14:13:39.284Z,11.30
2019-03-27T14:16:08.763Z,9.87
2019-03-27T14:18:38.309Z,18.80
2019-03-27T14:21:08.133Z,9.67
2019-03-27T14:23:37.570Z,8.67
2019-03-27T14:26:09.185Z,10.60
2019-03-27T14:28:38.595Z,16.03
2019-03-27T14:31:08.277Z,10.17
2019-03-27T14:33:37.829Z,8.70
2019-03-27T14:36:07.434Z,12.03
2019-03-27T14:38:37.149Z,8.53
2019-03-27T14:41:06.670Z,12.03
2019-03-27T14:43:36.123Z,11.47
2019-03-27T14:46:05.671Z,10.70
2019-03-27T14:48:35.095Z,14.83
2019-03-27T14:51:04.728Z,13.50
2019-03-27T14:53:34.264Z,11.37
2019-03-27T14:56:04.045Z,14.93
2019-03-27T14:58:33.544Z,13.47
2019-03-27T15:01:03.290Z,14.73
2019-03-27T15:03:32.845Z,15.30
2019-03-27T15:06:02.368Z,13.63
2019-03-27T15:08:31.879Z,9.23
2019-03-27T15:11:01.410Z,13.00
2019-03-27T15:13:30.891Z,13.23
2019-03-27T15:16:00.800Z,13.73
2019-03-27T15:18:30.290Z,13.90
2019-03-27T15:20:59.780Z,13.23
2019-03-27T15:23:29.281Z,13.03
2019-03-27T15:25:58.800Z,11.87
2019-03-27T15:28:28.154Z,16.37
2019-03-27T15:30:58.115Z,19.85
2019-03-27T15:33:27.570Z,17.40
2019-03-27T15:35:57.463Z,14.73
2019-03-27T15:38:27.000Z,15.77
2019-03-27T15:40:56.599Z,12.53
2019-03-27T15:43:26.091Z,16.53
2019-03-27T15:45:56.126Z,11.33
2019-03-27T15:48:25.577Z,19.47
2019-03-27T15:50:58.788Z,12.70
2019-03-27T15:53:26.223Z,14.70
2019-03-27T15:55:55.697Z,14.37
2019-03-27T15:58:25.182Z,13.27
2019-03-27T16:00:54.717Z,22.70
2019-03-27T16:03:24.208Z,24.30
2019-03-27T16:05:53.762Z,11.73
2019-03-27T16:08:23.126Z,14.53
2019-03-27T16:10:52.703Z,16.10
2019-03-27T16:13:22.117Z,17.47
2019-03-27T16:15:51.672Z,18.87
2019-03-27T16:18:21.179Z,14.43
2019-03-27T16:20:50.875Z,11.63
2019-03-27T16:23:20.326Z,10.97
2019-03-27T16:25:49.915Z,26.77
2019-03-27T16:28:19.241Z,14.87
2019-03-27T16:30:48.744Z,19.27
2019-03-27T16:33:18.339Z,17.80
2019-03-27T16:35:47.872Z,18.27
2019-03-27T16:38:17.275Z,23.07
2019-03-27T16:40:49.749Z,16.13
2019-03-27T16:43:20.137Z,25.33
2019-03-27T16:45:50.650Z,15.40
2019-03-27T16:48:20.571Z,28.53
2019-03-27T16:50:50.117Z,20.93
2019-03-27T16:53:19.715Z,18.13
2019-03-27T16:55:49.381Z,21.10
2019-03-27T16:58:19.020Z,21.20
2019-03-27T17:00:49.065Z,16.27
2019-03-27T17:03:18.549Z,22.43
2019-03-27T17:05:53.893Z,25.35
2019-03-27T17:08:19.328Z,11.77
2019-03-27T17:10:48.935Z,15.00
2019-03-27T17:13:18.533Z,24.67
2019-03-27T17:15:48.164Z,26.90
2019-03-27T17:18:17.814Z,18.93
2019-03-27T17:20:47.243Z,19.53
2019-03-27T17:23:18.472Z,19.60
2019-03-27T17:25:47.837Z,27.43
2019-03-27T17:28:17.508Z,23.60
2019-03-27T17:30:47.108Z,23.50
2019-03-27T17:33:16.678Z,24.00
2019-03-27T17:35:46.309Z,23.70
2019-03-27T17:38:15.820Z,29.13
2019-03-27T17:40:45.274Z,25.97
2019-03-27T17:43:14.768Z,22.37
2019-03-27T17:45:44.348Z,28.67
2019-03-27T17:48:13.845Z,30.20
2019-03-27T17:50:43.457Z,24.43
2019-03-27T17:53:13.088Z,24.80
2019-03-27T17:55:42.692Z,24.03
2019-03-27T17:58:12.220Z,20.97
2019-03-27T18:00:43.833Z,25.00
2019-03-27T18:03:13.318Z,29.73
2019-03-27T18:05:42.795Z,23.87
2019-03-27T18:08:12.249Z,26.53
2019-03-27T18:10:41.874Z,22.83
2019-03-27T18:13:11.423Z,25.23
2019-03-27T18:15:40.872Z,23.50
2019-03-27T18:18:10.490Z,19.47
2019-03-27T18:20:40.096Z,27.17
2019-03-27T18:23:09.643Z,33.80
2019-03-27T18:25:39.299Z,23.90
2019-03-27T18:28:08.839Z,22.47
2019-03-27T18:30:38.222Z,26.40
2019-03-27T18:33:07.880Z,30.43
2019-03-27T18:35:37.432Z,24.13
2019-03-27T18:38:06.944Z,25.80
2019-03-27T18:40:36.457Z,23.30
2019-03-27T18:43:06.063Z,21.93
2019-03-27T18:45:35.532Z,26.67
2019-03-27T18:48:05.084Z,25.70
2019-03-27T18:50:34.500Z,27.50
2019-03-27T18:53:04.052Z,25.50
2019-03-27T18:55:33.647Z,27.33
2019-03-27T18:58:02.996Z,23.40
2019-03-27T19:00:32.622Z,25.97
2019-03-27T19:03:02.117Z,28.40
2019-03-27T19:05:31.533Z,22.43
2019-03-27T19:08:01.016Z,28.90
2019-03-27T19:10:30.445Z,26.27
2019-03-27T19:12:59.964Z,24.67
2019-03-27T19:15:29.416Z,26.53
2019-03-27T19:17:58.905Z,22.77
2019-03-27T19:20:28.277Z,19.83
2019-03-27T19:22:58.345Z,27.95
2019-03-27T19:25:27.679Z,42.37
2019-03-27T19:27:57.214Z,24.37
2019-03-27T19:30:26.722Z,41.97
2019-03-27T19:32:56.171Z,42.90
2019-03-27T19:35:25.792Z,34.97
2019-03-27T19:37:55.552Z,45.00
2019-03-27T19:40:25.024Z,31.43
2019-03-27T19:42:54.710Z,45.00
2019-03-27T19:45:24.251Z,37.00
2019-03-27T19:47:53.848Z,35.50
2019-03-27T19:50:23.390Z,26.57
2019-03-27T19:52:52.840Z,28.33
2019-03-27T19:55:22.270Z,28.33
2019-03-27T19:57:51.819Z,37.87
2019-03-27T20:00:21.793Z,30.83
2019-03-27T20:02:51.261Z,35.87
2019-03-27T20:05:20.747Z,33.50
2019-03-27T20:07:50.192Z,38.38
2019-03-27T20:10:19.631Z,35.23
2019-03-27T20:12:49.351Z,34.67
2019-03-27T20:15:18.910Z,42.80
2019-03-27T20:17:48.454Z,31.50
2019-03-27T20:20:18.075Z,37.63
2019-03-27T20:22:47.521Z,32.13
2019-03-27T20:25:16.934Z,27.63
2019-03-27T20:27:46.428Z,29.63
2019-03-27T20:30:17.027Z,25.90
2019-03-27T20:32:46.612Z,32.70
2019-03-27T20:35:16.256Z,36.07
2019-03-27T20:37:45.631Z,28.33
2019-03-27T20:40:15.822Z,39.93
2019-03-27T20:42:45.346Z,34.23
2019-03-27T20:45:15.084Z,35.40
2019-03-27T20:47:44.545Z,30.60
2019-03-27T20:50:14.574Z,34.67
2019-03-27T20:52:44.201Z,39.83
2019-03-27T20:55:14.032Z,31.27
2019-03-27T20:57:43.550Z,29.90
2019-03-27T21:00:13.708Z,32.47
2019-03-27T21:02:43.229Z,24.83
2019-03-27T21:05:12.651Z,30.67
2019-03-27T21:07:42.135Z,35.93
2019-03-27T21:10:12.392Z,34.53
2019-03-27T21:12:41.924Z,36.07
2019-03-27T21:15:12.051Z,31.20
2019-03-27T21:17:41.745Z,34.03
2019-03-27T21:20:11.758Z,34.80
2019-03-27T21:22:41.205Z,27.27
2019-03-27T21:25:11.072Z,29.00
2019-03-27T21:27:40.550Z,39.80
2019-03-27T21:30:10.935Z,36.60
2019-03-27T21:32:40.555Z,37.43
2019-03-27T21:35:10.755Z,39.10
2019-03-27T21:37:40.182Z,39.45
2019-03-27T21:40:10.030Z,40.03
2019-03-27T21:42:39.565Z,32.97
2019-03-27T21:45:10.750Z,40.13
2019-03-27T21:47:40.153Z,40.27
2019-03-27T21:50:10.307Z,34.03
2019-03-27T21:52:39.700Z,33.50
2019-03-27T21:55:22.069Z,38.60
2019-03-27T21:57:40.600Z,34.07
2019-03-27T22:00:10.568Z,44.40
2019-03-27T22:02:40.016Z,32.53
2019-03-27T22:05:09.550Z,33.93
2019-03-27T22:07:38.982Z,36.33
2019-03-27T22:10:08.973Z,36.53
2019-03-27T22:12:38.787Z,38.30
2019-03-27T22:15:09.308Z,47.47
2019-03-27T22:17:38.915Z,37.97
2019-03-27T22:20:09.104Z,39.73
2019-03-27T22:22:38.537Z,41.50
2019-03-27T22:25:08.813Z,37.27
2019-03-27T22:27:38.234Z,46.47
2019-03-27T22:30:08.528Z,42.13
2019-03-27T22:32:37.928Z,43.63
2019-03-27T22:35:08.297Z,37.27
2019-03-27T22:37:37.854Z,35.60
2019-03-27T22:40:07.783Z,40.87
2019-03-27T22:42:37.270Z,49.63
2019-03-27T22:45:07.267Z,45.53
2019-03-27T22:47:36.751Z,38.30
2019-03-27T22:50:08.144Z,46.87
2019-03-27T22:52:37.609Z,45.07
2019-03-27T22:55:07.398Z,36.50
2019-03-27T22:57:36.812Z,41.20
2019-03-27T23:00:09.081Z,42.10
2019-03-27T23:02:38.553Z,50.83
2019-03-27T23:05:08.502Z,44.70
2019-03-27T23:07:38.488Z,38.47
2019-03-27T23:10:08.629Z,43.02
2019-03-27T23:12:38.028Z,38.97
2019-03-27T23:15:08.756Z,41.13
2019-03-27T23:17:38.917Z,44.95
2019-03-27T23:20:09.717Z,48.23
2019-03-27T23:22:39.282Z,45.07
2019-03-27T23:25:08.981Z,46.10
2019-03-27T23:27:38.396Z,41.73
2019-03-27T23:30:09.026Z,39.30
2019-03-27T23:32:38.559Z,55.30
2019-03-27T23:35:08.809Z,41.07
2019-03-27T23:37:38.319Z,49.17
2019-03-27T23:40:08.641Z,52.43
2019-03-27T23:42:38.274Z,42.13
2019-03-27T23:45:08.187Z,40.23
2019-03-27T23:47:37.697Z,54.60
2019-03-27T23:50:07.947Z,55.60
2019-03-27T23:52:37.425Z,50.53
2019-03-27T23:55:07.722Z,56.93
2019-03-27T23:57:37.356Z,52.33
